メインページ
METAR-TAF:

METAR-TAF

空港 :

チェンナイ, インド

チェンナイ国際空港

緯度: 13-00N, 経度: 080-11E, 海抜: 10m

現時点の気象観測

当レポートは44分前の14:00(UTC)に作成
の風 10kt
気温 32°C
湿度 71%
気圧 1005 hPa
視程: 6000m
高度2000ftの雲はほとんどない

METAR: VOMM 271400Z 18010KT 6000 FEW020 32/26 Q1005 NOSIG

時間: 20:14 (14:44 UTC)

予報

当レポートは3時間44分前の11:00(UTC)に作成
予報は27日の 12時(UTC)から 28日の 18時(UTC)まで有効
の風 10kt
視程: 6000m
高度2000ftの雲はほとんどない
高度10000ftの雲は散在している
27日の 12時(UTC)から 27日の 18時(UTC)まで一時的に
視程: 4000m
高度1800ftの雲は散在している
高度2500ftの雲はほとんどない, 積乱雲.
高度8000ftの千切れ雲あり
27日の 18時(UTC)から 27日の 19時(UTC)まで徐々に
西/南西の風 5kt
視程: 5000m
煙霧
28日の 03時(UTC)から 28日の 04時(UTC)まで徐々に
視程: 6000m
28日の 11時(UTC)から 28日の 12時(UTC)まで徐々に
の風 10kt

TAF: VOMM 271100Z 2712/2818 18010KT 6000 FEW020 SCT100 TEMPO 2712/2718 4000 -TSRA/RA SCT018 FEW025CB BKN080 BECMG 2718/2719 25005KT 5000 HZ BECMG 2803/2804 6000 BECMG 2811/2812 18010KT

4,000以上の空港の気象観測と天気予報(METAR報とTAF報)

利用可能な観測所は地図上に黄色い丸と赤い丸で示す。

丸の上にカーソルを重ねると観測所名を参照できる。

次にクリックすると気象観測と天気予報を参照できる。

マップの切り替え:黒色「×」印の緑ボタンをクリックして拡大、「-」印の緑ボタンをクリックして縮小、緑色の三角印をクリックして隣りの地図に切り替え


METAR-TAF: